Time;durP1;ratioP1;P1;durP2;ratioP2;P2;SDS_P1;SDS_P2;PMS_P1;PMS_P2;Temp;Humidity;BMP_temperature;BMP_pressure;BME280_temperature;BME280_humidity;BME280_pressure;Samples;Min_cycle;Max_cycle;Signal;HPM_P1;HPM_P2
2021/06/11 00:00:43;;;;;;;;;;;17.40;99.90;;;;;;5072978;28;19908;-80
2021/06/11 00:03:09;;;;;;;;;;;17.40;99.90;;;;;;5073796;28;19904;-79
2021/06/11 00:05:34;;;;;;;;;;;17.40;99.90;;;;;;5073999;28;19912;-79
2021/06/11 00:08:00;;;;;;;;;;;17.40;99.90;;;;;;5075114;28;19950;-79
2021/06/11 00:10:26;;;;;;;;;;;17.30;99.90;;;;;;5074994;28;19912;-79
2021/06/11 00:12:51;;;;;;;;;;;17.30;99.90;;;;;;5073627;28;19904;-79
2021/06/11 00:15:17;;;;;;;;;;;17.30;99.90;;;;;;5075382;28;19913;-79
2021/06/11 00:17:42;;;;;;;;;;;17.30;99.90;;;;;;5076023;28;19905;-80
2021/06/11 00:20:08;;;;;;;;;;;17.30;99.90;;;;;;5075845;28;20010;-79
2021/06/11 00:22:33;;;;;;;;;;;17.20;99.90;;;;;;5075652;28;19904;-80
2021/06/11 00:24:59;;;;;;;;;;;17.20;99.90;;;;;;5075690;28;20383;-79
2021/06/11 00:27:24;;;;;;;;;;;17.20;99.90;;;;;;5075444;28;19950;-80
2021/06/11 00:29:50;;;;;;;;;;;17.20;99.90;;;;;;5074703;28;19904;-81
2021/06/11 00:32:15;;;;;;;;;;;17.20;99.90;;;;;;5073703;28;20041;-79
2021/06/11 00:34:41;;;;;;;;;;;17.20;99.90;;;;;;5073450;28;19950;-79
2021/06/11 00:37:07;;;;;;;;;;;17.20;99.90;;;;;;5073504;28;19916;-79
2021/06/11 00:39:33;;;;;;;;;;;17.10;99.90;;;;;;5073787;28;19911;-80
2021/06/11 00:42:01;;;;;;;;;;;17.10;99.90;;;;;;5073887;28;19965;-79
2021/06/11 00:44:27;;;;;;;;;;;17.00;99.90;;;;;;5074029;28;19991;-79
2021/06/11 00:46:52;;;;;;;;;;;17.00;99.90;;;;;;5074076;28;19932;-79
2021/06/11 00:49:18;;;;;;;;;;;16.90;99.90;;;;;;5073400;28;19940;-79
2021/06/11 00:51:44;;;;;;;;;;;16.90;99.90;;;;;;5073453;28;19995;-79
2021/06/11 00:54:10;;;;;;;;;;;16.90;99.90;;;;;;5074866;28;19943;-79
2021/06/11 00:56:36;;;;;;;;;;;16.90;99.90;;;;;;5073389;28;19956;-79
2021/06/11 00:59:01;;;;;;;;;;;16.90;99.90;;;;;;5073493;28;20380;-79
2021/06/11 01:01:27;;;;;;;;;;;16.90;99.90;;;;;;5074586;28;19908;-79
2021/06/11 01:03:52;;;;;;;;;;;16.90;99.90;;;;;;5075086;28;19904;-79
2021/06/11 01:06:18;;;;;;;;;;;16.90;99.90;;;;;;5073395;28;20272;-80
2021/06/11 01:08:43;;;;;;;;;;;16.80;99.90;;;;;;5073301;28;19905;-79
2021/06/11 01:11:11;;;;;;;;;;;16.80;99.90;;;;;;5072516;28;20351;-80
2021/06/11 01:13:37;;;;;;;;;;;16.90;99.90;;;;;;5073825;28;19955;-81
2021/06/11 01:16:03;;;;;;;;;;;16.90;99.90;;;;;;5075135;28;19904;-79
2021/06/11 01:18:28;;;;;;;;;;;16.80;99.90;;;;;;5073071;28;20351;-79
2021/06/11 01:20:53;;;;;;;;;;;16.80;99.90;;;;;;5075398;28;20277;-79
2021/06/11 01:23:19;;;;;;;;;;;16.70;99.90;;;;;;5073202;28;19905;-79
2021/06/11 01:25:51;;;;;;;;;;;16.70;99.90;;;;;;5073899;28;19963;-79
2021/06/11 01:28:16;;;;;;;;;;;16.70;99.90;;;;;;5073670;28;19905;-79
2021/06/11 01:30:42;;;;;;;;;;;16.70;99.90;;;;;;5073557;28;20279;-79
2021/06/11 01:33:09;;;;;;;;;;;16.70;99.90;;;;;;5073483;28;20386;-80
2021/06/11 01:35:41;;;;;;;;;;;16.70;99.90;;;;;;5073522;28;19962;-80
2021/06/11 01:38:07;;;;;;;;;;;16.60;99.90;;;;;;5074993;28;19994;-80
2021/06/11 01:40:33;;;;;;;;;;;16.60;99.90;;;;;;5074822;28;19916;-79
2021/06/11 01:43:01;;;;;;;;;;;16.60;99.90;;;;;;5073092;28;19904;-79
2021/06/11 01:45:27;;;;;;;;;;;16.60;99.90;;;;;;5074536;28;19912;-79
2021/06/11 01:47:53;;;;;;;;;;;16.60;99.90;;;;;;5072726;28;20325;-80
2021/06/11 01:50:22;;;;;;;;;;;16.60;99.90;;;;;;5072976;28;19905;-79
2021/06/11 01:52:48;;;;;;;;;;;16.50;99.90;;;;;;5074899;28;19904;-80
2021/06/11 01:55:15;;;;;;;;;;;16.60;99.90;;;;;;5073719;28;19905;-79
2021/06/11 01:57:42;;;;;;;;;;;16.50;99.90;;;;;;5073576;28;20275;-80
2021/06/11 02:00:08;;;;;;;;;;;16.50;99.90;;;;;;5073587;28;19912;-80
2021/06/11 02:02:34;;;;;;;;;;;16.40;99.90;;;;;;5073518;28;20007;-81
2021/06/11 02:05:01;;;;;;;;;;;16.40;99.90;;;;;;5073436;28;20355;-79
2021/06/11 02:07:27;;;;;;;;;;;16.40;99.90;;;;;;5075288;28;19947;-81
2021/06/11 02:09:52;;;;;;;;;;;16.40;99.90;;;;;;5074286;28;19912;-80
2021/06/11 02:12:18;;;;;;;;;;;16.40;99.90;;;;;;5073822;28;19904;-80
2021/06/11 02:14:44;;;;;;;;;;;16.40;99.90;;;;;;5075922;28;19958;-81
2021/06/11 02:17:10;;;;;;;;;;;16.30;99.90;;;;;;5074138;28;19952;-80
2021/06/11 02:19:37;;;;;;;;;;;16.30;99.90;;;;;;5075484;28;19908;-80
2021/06/11 02:22:03;;;;;;;;;;;16.30;99.90;;;;;;5075801;28;19995;-80
2021/06/11 02:24:28;;;;;;;;;;;16.20;99.90;;;;;;5078430;28;19985;-80
2021/06/11 02:26:54;;;;;;;;;;;16.20;99.90;;;;;;5078296;28;19911;-80
2021/06/11 02:29:20;;;;;;;;;;;16.20;99.90;;;;;;5078289;28;19912;-80
2021/06/11 02:31:46;;;;;;;;;;;16.20;99.90;;;;;;5079264;28;20333;-80
2021/06/11 02:34:13;;;;;;;;;;;16.10;99.90;;;;;;5079564;28;19914;-81
2021/06/11 02:36:38;;;;;;;;;;;16.10;99.90;;;;;;5078058;28;19912;-79
2021/06/11 02:39:04;;;;;;;;;;;16.00;99.90;;;;;;5077293;28;19911;-79
2021/06/11 02:41:32;;;;;;;;;;;16.00;99.90;;;;;;5078967;28;19914;-79
2021/06/11 02:43:58;;;;;;;;;;;15.90;99.90;;;;;;5078794;28;20010;-79
2021/06/11 02:46:28;;;;;;;;;;;15.80;99.90;;;;;;5077499;28;20321;-80
2021/06/11 02:49:04;;;;;;;;;;;15.80;99.90;;;;;;5076953;28;19904;-80
2021/06/11 02:51:42;;;;;;;;;;;15.70;99.90;;;;;;5076625;28;19908;-80
2021/06/11 02:54:13;;;;;;;;;;;15.70;99.90;;;;;;5076284;28;19908;-79
2021/06/11 02:56:43;;;;;;;;;;;15.70;99.90;;;;;;5075223;28;19905;-79
2021/06/11 02:59:20;;;;;;;;;;;15.60;99.90;;;;;;5075132;28;19939;-79
2021/06/11 03:01:50;;;;;;;;;;;15.60;99.90;;;;;;5076166;28;19967;-80
2021/06/11 03:04:15;;;;;;;;;;;15.60;99.90;;;;;;5076737;28;19911;-81
2021/06/11 03:06:45;;;;;;;;;;;15.60;99.90;;;;;;5077047;28;20279;-81
2021/06/11 03:09:12;;;;;;;;;;;15.50;99.90;;;;;;5079225;28;19939;-80
2021/06/11 03:11:40;;;;;;;;;;;15.50;99.90;;;;;;5077091;28;19948;-80
2021/06/11 03:14:07;;;;;;;;;;;15.50;99.90;;;;;;5074850;28;19904;-80
2021/06/11 03:16:33;;;;;;;;;;;15.50;99.90;;;;;;5074064;28;19905;-81
2021/06/11 03:19:05;;;;;;;;;;;15.50;99.90;;;;;;5073386;28;19913;-80
2021/06/11 03:21:31;;;;;;;;;;;15.50;99.90;;;;;;5073554;28;19908;-80
2021/06/11 03:24:00;;;;;;;;;;;15.50;99.90;;;;;;5073324;28;20295;-78
2021/06/11 03:26:28;;;;;;;;;;;15.50;99.90;;;;;;5074650;28;19950;-79
2021/06/11 03:28:55;;;;;;;;;;;15.50;99.90;;;;;;5073301;28;20042;-80
2021/06/11 03:31:27;;;;;;;;;;;15.40;99.90;;;;;;5074506;28;19911;-80
2021/06/11 03:33:55;;;;;;;;;;;15.50;99.90;;;;;;5072396;28;20383;-78
2021/06/11 03:36:43;;;;;;;;;;;15.50;99.90;;;;;;5074429;28;19912;-79
2021/06/11 03:39:26;;;;;;;;;;;15.50;99.90;;;;;;5072876;28;19905;-80
2021/06/11 03:41:52;;;;;;;;;;;15.50;99.90;;;;;;5073443;28;19909;-79
2021/06/11 03:44:18;;;;;;;;;;;15.60;99.90;;;;;;5073197;28;19996;-79
2021/06/11 03:46:45;;;;;;;;;;;15.60;99.90;;;;;;5073099;28;19923;-79
2021/06/11 03:49:11;;;;;;;;;;;15.60;99.90;;;;;;5074236;28;19998;-79
2021/06/11 03:51:39;;;;;;;;;;;15.60;99.90;;;;;;5072671;28;20360;-79
2021/06/11 03:54:07;;;;;;;;;;;15.60;99.90;;;;;;5072939;28;19911;-81
2021/06/11 03:56:34;;;;;;;;;;;15.50;99.90;;;;;;5073072;28;19905;-80
2021/06/11 03:59:01;;;;;;;;;;;15.50;99.90;;;;;;5072892;28;19904;-80
2021/06/11 04:01:29;;;;;;;;;;;15.50;99.90;;;;;;5072901;28;19965;-78
2021/06/11 04:03:54;;;;;;;;;;;15.60;99.90;;;;;;5072921;28;19959;-79
2021/06/11 04:06:22;;;;;;;;;;;15.60;99.90;;;;;;5073235;28;19904;-81
2021/06/11 04:08:50;;;;;;;;;;;15.60;99.90;;;;;;5073140;28;19908;-79
2021/06/11 04:11:18;;;;;;;;;;;15.70;99.90;;;;;;5073133;28;19915;-81
2021/06/11 04:13:48;;;;;;;;;;;15.70;99.90;;;;;;5074508;28;19964;-79
2021/06/11 04:16:16;;;;;;;;;;;15.80;99.90;;;;;;5074607;28;19904;-81
2021/06/11 04:18:43;;;;;;;;;;;15.90;99.90;;;;;;5073028;28;19908;-81
2021/06/11 04:21:10;;;;;;;;;;;16.10;99.90;;;;;;5072955;28;19908;-81
2021/06/11 04:23:38;;;;;;;;;;;16.10;99.90;;;;;;5072823;28;19904;-80
2021/06/11 04:26:05;;;;;;;;;;;16.20;99.90;;;;;;5074463;28;20465;-79
2021/06/11 04:28:31;;;;;;;;;;;16.30;99.90;;;;;;5072433;28;20354;-78
2021/06/11 04:30:58;;;;;;;;;;;16.40;99.90;;;;;;5073076;28;19904;-78
2021/06/11 04:33:25;;;;;;;;;;;16.60;99.90;;;;;;5074053;28;19904;-80
2021/06/11 04:35:50;;;;;;;;;;;16.60;99.90;;;;;;5072868;28;20362;-79
2021/06/11 04:38:16;;;;;;;;;;;16.70;99.90;;;;;;5072690;28;19908;-79
2021/06/11 04:40:42;;;;;;;12.85;8.48;;;17.20;99.90;;;;;;5072274;28;19908;-80
2021/06/11 04:43:08;;;;;;;;;;;18.20;99.90;;;;;;5071860;28;19904;-80
2021/06/11 04:45:34;;;;;;;;;;;18.30;99.90;;;;;;5070298;28;19911;-80
2021/06/11 04:47:59;;;;;;;9.25;7.35;;;18.80;99.90;;;;;;5070884;28;19908;-80
2021/06/11 04:50:26;;;;;;;9.02;7.03;;;21.40;99.90;;;;;;5070912;28;20024;-80
2021/06/11 04:52:52;;;;;;;9.32;6.43;;;23.30;99.90;;;;;;5070627;28;20384;-82
2021/06/11 04:55:18;;;;;;;7.80;5.90;;;23.10;99.90;;;;;;5071001;28;20326;-81
2021/06/11 04:57:43;;;;;;;8.27;6.65;;;22.70;99.90;;;;;;5070972;28;20347;-81
2021/06/11 05:00:10;;;;;;;6.72;5.55;;;22.50;99.90;;;;;;5070588;28;20122;-80
2021/06/11 05:02:35;;;;;;;9.02;5.95;;;21.70;99.90;;;;;;5072074;28;20020;-83
2021/06/11 05:05:01;;;;;;;11.52;6.10;;;21.00;99.90;;;;;;5070594;28;20092;-82
2021/06/11 05:07:27;;;;;;;11.48;7.07;;;20.40;99.90;;;;;;5070868;28;20021;-80
2021/06/11 05:09:53;;;;;;;11.38;7.13;;;20.00;99.90;;;;;;5071658;28;19908;-82
2021/06/11 05:12:19;;;;;;;6.80;5.70;;;19.80;99.90;;;;;;5069446;28;19950;-80
2021/06/11 05:14:44;;;;;;;6.95;5.70;;;19.90;99.90;;;;;;5059904;28;20434;-80
2021/06/11 05:17:10;;;;;;;;;;;20.40;99.90;;;;;;5072570;28;19963;-81
2021/06/11 05:19:35;;;;;;;;;;;21.30;99.90;;;;;;5069974;28;20150;-80
2021/06/11 05:22:01;;;;;;;;;;;21.80;99.90;;;;;;5070394;28;20047;-79
2021/06/11 05:24:26;;;;;;;;;;;22.10;99.90;;;;;;5071963;28;20074;-81
2021/06/11 05:26:52;;;;;;;;;;;22.00;99.90;;;;;;5070940;28;20035;-81
2021/06/11 05:29:18;;;;;;;;;;;21.90;99.90;;;;;;5072139;28;20032;-81
2021/06/11 05:31:43;;;;;;;;;;;22.40;99.90;;;;;;5071862;28;20043;-79
2021/06/11 05:34:10;;;;;;;6.20;5.30;;;22.60;99.90;;;;;;5070741;28;20075;-79
2021/06/11 05:36:35;;;;;;;5.27;4.17;;;24.70;99.90;;;;;;5070325;28;20138;-80
2021/06/11 05:39:01;;;;;;;5.27;4.17;;;27.60;99.90;;;;;;5070820;28;20105;-80
2021/06/11 05:41:26;;;;;;;5.57;3.63;;;29.30;99.90;;;;;;5071985;28;20058;-80
2021/06/11 05:43:52;;;;;;;4.93;4.37;;;30.40;99.90;;;;;;5070804;28;20078;-79
2021/06/11 05:46:19;;;;;;;5.75;4.68;;;31.30;99.90;;;;;;5070587;28;20025;-80
2021/06/11 05:48:46;;;;;;;5.38;4.60;;;32.30;99.90;;;;;;5070454;28;20128;-78
2021/06/11 05:51:12;;;;;;;6.13;5.53;;;32.30;98.60;;;;;;5070645;28;20035;-79
2021/06/11 05:53:37;;;;;;;6.33;4.87;;;32.10;98.00;;;;;;5072273;28;20032;-82
2021/06/11 05:56:04;;;;;;;7.50;5.17;;;33.00;95.60;;;;;;5071636;28;20060;-80
2021/06/11 05:58:29;;;;;;;;;;;31.90;96.40;;;;;;5076477;28;20044;-80
2021/06/11 06:00:55;;;;;;;5.57;4.82;;;30.40;97.50;;;;;;5074917;28;20398;-83
2021/06/11 06:03:21;;;;;;;8.77;5.20;;;28.80;99.90;;;;;;5075172;28;20029;-83
2021/06/11 06:05:46;;;;;;;6.45;5.80;;;27.90;99.90;;;;;;5065984;28;20017;-82
2021/06/11 06:08:12;;;;;;;5.23;4.73;;;27.20;99.90;;;;;;5054771;28;20403;-80
2021/06/11 06:10:38;;;;;;;7.07;5.63;;;26.80;99.90;;;;;;5055846;28;20033;-83
2021/06/11 06:13:03;;;;;;;5.57;4.97;;;26.70;99.90;;;;;;5054956;28;20782;-82
2021/06/11 06:15:29;;;;;;;5.63;4.80;;;27.00;99.90;;;;;;5056022;28;20464;-83
2021/06/11 06:17:54;;;;;;;7.50;5.43;;;26.70;99.90;;;;;;5054836;28;20103;-82
2021/06/11 06:20:20;;;;;;;5.90;5.00;;;26.80;99.90;;;;;;5058127;28;20378;-81
2021/06/11 06:22:46;;;;;;;6.00;5.40;;;27.00;99.90;;;;;;5054995;28;20078;-80
2021/06/11 06:25:12;;;;;;;6.67;5.10;;;27.10;99.90;;;;;;5054927;28;20028;-80
2021/06/11 06:27:40;;;;;;;5.07;4.57;;;27.00;99.90;;;;;;5056263;28;20045;-80
2021/06/11 06:30:08;;;;;;;7.43;5.35;;;27.20;99.90;;;;;;5054301;28;20467;-80
2021/06/11 06:32:34;;;;;;;7.78;5.65;;;27.30;99.90;;;;;;5054505;28;20051;-78
2021/06/11 06:35:00;;;;;;;5.05;4.43;;;27.90;99.90;;;;;;5056136;28;20028;-79
2021/06/11 06:37:27;;;;;;;7.97;5.32;;;30.30;99.90;;;;;;5055632;28;20028;-80
2021/06/11 06:39:53;;;;;;;6.13;5.03;;;32.30;99.90;;;;;;5053997;28;20063;-78
2021/06/11 06:42:18;;;;;;;5.50;5.00;;;33.80;96.90;;;;;;5054410;28;20021;-79
2021/06/11 06:44:44;;;;;;;5.27;4.73;;;34.60;94.60;;;;;;5054462;28;20052;-80
2021/06/11 06:47:10;;;;;;;5.15;4.65;;;35.40;92.10;;;;;;5054155;28;20763;-80
2021/06/11 06:49:37;;;;;;;7.30;4.85;;;35.40;90.30;;;;;;5054139;28;20041;-81
2021/06/11 06:52:03;;;;;;;5.78;4.88;;;35.60;88.40;;;;;;5054486;28;20055;-80
2021/06/11 06:54:29;;;;;;;6.35;5.75;;;36.10;85.10;;;;;;5054222;28;20029;-83
2021/06/11 06:56:55;;;;;;;6.93;5.93;;;36.40;81.80;;;;;;5054330;28;20056;-80
2021/06/11 06:59:21;;;;;;;5.80;5.20;;;36.30;81.70;;;;;;5054237;28;20035;-80
2021/06/11 07:01:50;;;;;;;5.97;5.40;;;36.30;85.50;;;;;;5054341;28;20029;-82
2021/06/11 07:04:18;;;;;;;5.88;4.93;;;35.90;81.80;;;;;;5053931;28;20487;-81
2021/06/11 07:06:49;;;;;;;5.22;4.60;;;35.30;83.50;;;;;;5067876;28;20547;-79
2021/06/11 07:09:15;;;;;;;7.25;5.20;;;34.00;83.10;;;;;;5073943;28;20025;-79
2021/06/11 07:11:40;;;;;;;5.60;5.10;;;32.70;85.10;;;;;;5073649;28;20540;-80
2021/06/11 07:14:06;;;;;;;7.35;6.10;;;31.90;90.00;;;;;;5076606;28;20055;-77
2021/06/11 07:16:31;;;;;;;6.13;5.53;;;32.20;89.30;;;;;;5073788;28;20058;-83
2021/06/11 07:18:57;;;;;;;6.03;5.43;;;31.60;90.30;;;;;;5073193;28;20064;-79
2021/06/11 07:21:22;;;;;;;7.50;5.70;;;30.70;91.60;;;;;;5073401;28;20021;-79
2021/06/11 07:23:48;;;;;;;6.00;4.77;;;29.40;93.70;;;;;;5073684;28;19913;-78
2021/06/11 07:26:13;;;;;;;8.93;6.07;;;29.30;96.00;;;;;;5073512;28;20025;-80
2021/06/11 07:28:39;;;;;;;7.97;5.37;;;29.30;95.80;;;;;;5074494;28;19909;-78
2021/06/11 07:31:06;;;;;;;6.80;6.20;;;29.50;95.60;;;;;;5074904;28;20430;-79
2021/06/11 07:33:31;;;;;;;6.53;5.68;;;29.20;95.20;;;;;;5073546;28;20035;-79
2021/06/11 07:35:58;;;;;;;7.50;6.07;;;29.30;97.90;;;;;;5073008;28;20037;-78
2021/06/11 07:38:26;;;;;;;;;;;29.00;98.10;;;;;;5074579;28;20033;-78
2021/06/11 07:40:53;;;;;;;;;;;29.30;95.90;;;;;;5064479;28;20257;-79
2021/06/11 07:43:22;;;;;;;;;;;29.00;97.30;;;;;;5053946;28;19956;-77
2021/06/11 07:45:48;;;;;;;;;;;29.30;97.80;;;;;;5053595;28;19908;-79
2021/06/11 07:48:13;;;;;;;;;;;28.60;97.70;;;;;;5055928;28;19944;-79
2021/06/11 07:50:39;;;;;;;;;;;29.40;98.80;;;;;;5075500;28;19909;-80
2021/06/11 07:53:05;;;;;;;;;;;29.70;97.40;;;;;;5058338;28;20241;-79
2021/06/11 07:55:31;;;;;;;;;;;29.00;96.70;;;;;;5078105;28;19911;-82
2021/06/11 07:57:56;;;;;;;;;;;29.00;99.70;;;;;;5072880;28;19904;-79
2021/06/11 08:00:22;;;;;;;;;;;29.10;99.90;;;;;;5071248;28;19914;-79
2021/06/11 08:02:47;;;;;;;;;;;29.10;98.60;;;;;;5072590;28;19908;-78
2021/06/11 08:05:13;;;;;;;;;;;29.60;98.90;;;;;;5070789;28;20379;-78
2021/06/11 08:07:38;;;;;;;;;;;29.70;98.80;;;;;;5070804;28;20304;-79
2021/06/11 08:10:04;;;;;;;;;;;29.80;99.40;;;;;;5072562;28;19904;-80
2021/06/11 08:12:30;;;;;;;;;;;29.80;98.10;;;;;;5070564;28;19908;-78
2021/06/11 08:14:55;;;;;;;;;;;30.20;96.90;;;;;;5070302;28;20101;-79
2021/06/11 08:17:21;;;;;;;;;;;31.10;95.70;;;;;;5070318;28;20122;-79
2021/06/11 08:19:46;;;;;;;;;;;31.30;93.70;;;;;;5071230;28;20055;-78
2021/06/11 08:22:12;;;;;;;;;;;30.80;97.30;;;;;;5069871;28;20028;-79
2021/06/11 08:24:37;;;;;;;;;;;30.10;95.00;;;;;;5070079;28;19908;-80
2021/06/11 08:27:03;;;;;;;;;;;29.70;97.20;;;;;;5070999;28;20027;-79
2021/06/11 08:29:29;;;;;;;;;;;29.60;97.80;;;;;;5069719;28;20028;-79
2021/06/11 08:31:54;;;;;;;;;;;29.70;99.30;;;;;;5069477;28;20372;-80
2021/06/11 08:34:19;;;;;;;;;;;29.50;98.90;;;;;;5070245;28;19946;-81
2021/06/11 08:36:46;;;;;;;;;;;29.70;98.00;;;;;;5071107;28;20264;-80
2021/06/11 08:39:12;;;;;;;;;;;30.10;99.60;;;;;;5070377;28;20035;-80
2021/06/11 08:41:37;;;;;;;9.50;7.40;;;29.70;98.00;;;;;;5070392;28;19912;-82
2021/06/11 08:44:05;;;;;;;8.43;7.47;;;30.50;97.20;;;;;;5070515;28;20039;-80
2021/06/11 08:46:31;;;;;;;10.05;8.48;;;31.30;94.80;;;;;;5071367;28;20036;-80
2021/06/11 08:48:58;;;;;;;10.07;7.57;;;32.60;95.10;;;;;;5070643;28;20106;-81
2021/06/11 08:51:24;;;;;;;8.93;7.15;;;34.70;91.60;;;;;;5070439;28;20036;-79
2021/06/11 08:53:50;;;;;;;12.27;7.93;;;35.60;90.20;;;;;;5069751;28;19912;-80
2021/06/11 08:56:16;;;;;;;8.77;7.10;;;36.20;84.50;;;;;;5070657;28;20109;-80
2021/06/11 08:58:41;;;;;;;8.60;7.70;;;36.60;82.40;;;;;;5070476;28;20026;-82
2021/06/11 09:01:08;;;;;;;8.13;6.13;;;36.10;82.10;;;;;;5069746;28;20024;-79
2021/06/11 09:03:44;;;;;;;;;;;35.90;84.40;;;;;;5073528;28;19957;-81
2021/06/11 09:06:13;;;;;;;;;;;35.50;79.30;;;;;;5074961;28;19904;-81
2021/06/11 09:08:48;;;;;;;9.20;6.50;;;34.30;85.00;;;;;;5061196;28;19970;-81
2021/06/11 09:11:18;;;;;;;7.47;6.05;;;33.50;86.60;;;;;;5055774;28;20025;-82
2021/06/11 09:13:47;;;;;;;7.75;6.70;;;32.70;89.00;;;;;;5053239;28;20025;-83
2021/06/11 09:16:22;;;;;;;7.80;6.57;;;32.60;87.10;;;;;;5056416;28;20017;-82
2021/06/11 09:18:50;;;;;;;6.80;6.10;;;33.00;86.90;;;;;;5054358;28;20072;-82
2021/06/11 09:21:47;;;;;;;7.35;5.60;;;33.40;86.70;;;;;;5054986;28;19995;-82
2021/06/11 09:24:24;;;;;;;8.18;5.80;;;34.40;83.90;;;;;;5054678;28;20049;-80
2021/06/11 09:27:01;;;;;;;7.32;5.95;;;35.40;83.90;;;;;;5054380;28;20021;-82
2021/06/11 09:29:28;;;;;;;7.43;6.63;;;36.10;81.10;;;;;;5052968;28;20115;-82
2021/06/11 09:32:20;;;;;;;8.18;6.35;;;36.70;75.80;;;;;;5053229;28;20021;-81
2021/06/11 09:34:57;;;;;;;6.65;5.95;;;36.80;77.50;;;;;;5058426;28;20056;-83
2021/06/11 09:37:30;;;;;;;7.25;5.53;;;37.50;75.90;;;;;;5057378;28;20033;-81
2021/06/11 09:40:07;;;;;;;9.20;6.07;;;38.10;73.70;;;;;;5056421;28;20047;-83
2021/06/11 09:42:35;;;;;;;6.72;6.03;;;38.30;73.90;;;;;;5057650;28;20548;-81
2021/06/11 09:45:08;;;;;;;6.30;5.53;;;37.80;72.00;;;;;;5056543;28;20044;-84
2021/06/11 09:47:42;;;;;;;7.03;6.22;;;38.50;71.00;;;;;;5058099;28;20036;-83
2021/06/11 09:50:16;;;;;;;5.35;4.85;;;37.60;73.00;;;;;;5058910;28;20048;-82
2021/06/11 09:52:52;;;;;;;6.35;5.75;;;37.80;71.50;;;;;;5059177;28;20073;-81
2021/06/11 09:55:40;;;;;;;5.03;4.55;;;38.10;69.60;;;;;;5071582;28;20298;-82
2021/06/11 09:58:14;;;;;;;4.63;4.00;;;38.10;71.40;;;;;;5078772;28;20027;-78
2021/06/11 10:00:53;;;;;;;5.47;4.97;;;38.40;67.50;;;;;;5080766;28;20024;-77
2021/06/11 10:03:28;;;;;;;5.95;5.20;;;38.70;68.10;;;;;;5082179;28;20025;-80
2021/06/11 10:05:59;;;;;;;6.57;5.03;;;38.70;64.60;;;;;;5081859;28;20563;-78
2021/06/11 10:08:25;;;;;;;6.60;5.32;;;37.90;69.40;;;;;;5067214;28;20107;-77
2021/06/11 10:10:59;;;;;;;5.78;5.18;;;37.70;67.60;;;;;;5062317;28;20025;-80
2021/06/11 10:13:25;;;;;;;5.53;4.45;;;37.90;68.60;;;;;;5062549;28;20103;-80
2021/06/11 10:15:54;;;;;;;4.68;4.18;;;37.70;66.80;;;;;;5073422;28;20068;-79
2021/06/11 10:18:21;;;;;;;5.82;4.75;;;37.60;66.60;;;;;;5069395;28;20090;-82
2021/06/11 10:20:48;;;;;;;5.65;5.15;;;38.10;69.70;;;;;;5062502;28;20021;-80
2021/06/11 10:23:16;;;;;;;5.60;4.80;;;37.70;63.70;;;;;;5058165;28;20056;-79
2021/06/11 10:25:44;;;;;;;;;;;37.80;64.80;;;;;;5057926;28;20047;-78
2021/06/11 10:28:18;;;;;;;;;;;37.50;67.30;;;;;;5069759;28;19908;-78
2021/06/11 10:30:44;;;;;;;;;;;37.70;65.10;;;;;;5075941;28;20431;-80
2021/06/11 10:33:09;;;;;;;;;;;38.70;62.00;;;;;;5080812;28;20043;-78
2021/06/11 10:35:47;;;;;;;4.30;3.90;;;39.20;65.40;;;;;;5077095;28;20047;-79
2021/06/11 10:38:35;;;;;;;4.43;4.03;;;39.20;60.60;;;;;;5074662;28;20511;-75
2021/06/11 10:41:05;;;;;;;4.05;3.47;;;38.00;63.00;;;;;;5063367;28;20025;-79
2021/06/11 10:43:38;;;;;;;4.43;4.03;;;38.40;62.00;;;;;;5058994;28;20025;-80
2021/06/11 10:46:19;;;;;;;4.03;3.63;;;36.90;59.80;;;;;;5057747;28;20032;-79
2021/06/11 10:49:01;;;;;;;5.97;3.60;;;36.00;59.30;;;;;;5058400;28;20020;-80
2021/06/11 10:51:47;;;;;;;4.10;3.80;;;36.90;61.70;;;;;;5063839;28;20077;-80
2021/06/11 10:54:15;;;;;;;3.95;3.65;;;36.80;62.80;;;;;;5074700;28;20047;-79
2021/06/11 10:56:56;;;;;;;3.45;3.15;;;37.10;61.70;;;;;;5064901;28;20028;-81
2021/06/11 10:59:47;;;;;;;5.18;3.85;;;37.50;63.50;;;;;;5070681;28;20368;-79
2021/06/11 11:02:12;;;;;;;6.10;4.55;;;37.10;63.00;;;;;;5057246;28;20110;-79
2021/06/11 11:04:41;;;;;;;4.07;3.67;;;37.10;60.10;;;;;;5057657;28;20543;-78
2021/06/11 11:07:27;;;;;;;2.42;2.25;;;36.60;62.90;;;;;;5069530;28;20052;-79
2021/06/11 11:09:59;;;;;;;;;;;36.00;61.50;;;;;;5066041;28;20082;-81
2021/06/11 11:12:29;;;;;;;;;;;35.10;62.90;;;;;;5076307;28;19904;-79
2021/06/11 11:14:56;;;;;;;3.72;3.42;;;34.90;63.30;;;;;;5058273;28;19905;-78
2021/06/11 11:17:22;;;;;;;3.75;3.17;;;34.80;65.30;;;;;;5055836;28;20020;-78
2021/06/11 11:20:03;;;;;;;4.35;3.95;;;34.40;66.80;;;;;;5055089;28;20029;-77
2021/06/11 11:22:38;;;;;;;;;;;34.00;71.50;;;;;;5054716;28;19909;-77
2021/06/11 11:25:04;;;;;;;;;;;33.30;65.40;;;;;;5055349;28;19904;-76
2021/06/11 11:27:31;;;;;;;7.67;4.50;;;32.70;66.70;;;;;;5074108;28;20407;-76
2021/06/11 11:29:57;;;;;;;;;;;32.60;67.00;;;;;;5072387;28;20103;-77
2021/06/11 11:32:24;;;;;;;;;;;32.10;69.30;;;;;;5066717;28;20017;-76
2021/06/11 11:34:50;;;;;;;;;;;32.00;69.20;;;;;;5072755;28;19904;-78
2021/06/11 11:37:15;;;;;;;;;;;32.20;70.50;;;;;;5074096;28;19912;-76
2021/06/11 11:39:41;;;;;;;;;;;32.20;72.50;;;;;;5074640;28;20322;-76
2021/06/11 11:42:07;;;;;;;;;;;32.00;66.60;;;;;;5073999;28;20375;-77
2021/06/11 11:44:33;;;;;;;;;;;31.30;69.40;;;;;;5073708;28;20352;-75
2021/06/11 11:46:59;;;;;;;;;;;31.30;65.50;;;;;;5072425;28;19911;-76
2021/06/11 11:49:24;;;;;;;;;;;31.40;66.90;;;;;;5073600;28;19950;-76
2021/06/11 11:51:50;;;;;;;;;;;31.00;66.50;;;;;;5075290;28;19954;-78
2021/06/11 11:54:16;;;;;;;;;;;31.30;67.30;;;;;;5072426;28;19904;-76
2021/06/11 11:56:42;;;;;;;;;;;31.50;70.40;;;;;;5073794;28;20344;-76
2021/06/11 11:59:07;;;;;;;;;;;31.40;71.20;;;;;;5071756;28;19994;-77
2021/06/11 12:01:40;;;;;;;;;;;31.60;72.50;;;;;;5072686;28;19908;-77
2021/06/11 12:04:06;;;;;;;;;;;31.40;70.60;;;;;;5053281;28;19920;-77
2021/06/11 12:06:31;;;;;;;;;;;31.80;72.00;;;;;;5053222;28;19904;-78
2021/06/11 12:08:57;;;;;;;;;;;32.10;70.20;;;;;;5061907;28;19915;-76
2021/06/11 12:11:22;;;;;;;;;;;31.90;69.70;;;;;;5073754;28;20037;-78
2021/06/11 12:13:48;;;;;;;;;;;31.70;70.30;;;;;;5067817;28;19928;-77
2021/06/11 12:16:14;;;;;;;;;;;31.70;69.60;;;;;;5052255;28;19904;-77
2021/06/11 12:18:39;;;;;;;;;;;31.50;65.20;;;;;;5053240;28;19959;-77
2021/06/11 12:21:07;;;;;;;;;;;31.40;72.70;;;;;;5052544;28;20380;-77
2021/06/11 12:23:33;;;;;;;;;;;31.80;71.30;;;;;;5053715;28;19909;-76
2021/06/11 12:25:58;;;;;;;;;;;31.90;68.00;;;;;;5058868;28;19904;-76
2021/06/11 12:28:24;;;;;;;;;;;31.60;68.10;;;;;;5073099;28;19904;-76
2021/06/11 12:30:49;;;;;;;;;;;31.70;67.30;;;;;;5072753;28;20363;-77
2021/06/11 12:33:15;;;;;;;;;;;31.50;68.20;;;;;;5071981;28;19904;-78
2021/06/11 12:35:40;;;;;;;;;;;31.70;76.70;;;;;;5071722;28;19912;-77
2021/06/11 12:38:06;;;;;;;;;;;31.80;72.80;;;;;;5072946;28;19916;-78
2021/06/11 12:40:31;;;;;;;;;;;31.80;68.40;;;;;;5071755;28;20027;-75
2021/06/11 12:43:03;;;;;;;;;;;31.90;72.30;;;;;;5071387;28;19904;-75
2021/06/11 12:45:42;;;;;;;;;;;31.80;65.90;;;;;;5143125;27;19955;-76
2021/06/11 12:48:08;;;;;;;;;;;31.50;68.60;;;;;;5108729;28;19916;-77
2021/06/11 12:50:33;;;;;;;;;;;31.80;73.00;;;;;;5109578;28;19908;-77
2021/06/11 12:52:59;;;;;;;;;;;31.40;71.00;;;;;;5108429;28;19908;-76
2021/06/11 12:55:26;;;;;;;;;;;31.40;65.70;;;;;;5109785;28;20290;-76
2021/06/11 12:57:51;;;;;;;;;;;31.70;70.80;;;;;;5109846;28;20264;-77
2021/06/11 13:00:17;;;;;;;;;;;32.10;71.20;;;;;;5109406;28;19915;-77
2021/06/11 13:02:42;;;;;;;;;;;31.90;66.90;;;;;;5108219;28;19931;-77
2021/06/11 13:05:08;;;;;;;;;;;31.60;73.30;;;;;;5109545;28;20431;-76
2021/06/11 13:07:34;;;;;;;;;;;31.80;71.00;;;;;;5110776;28;19909;-76
2021/06/11 13:09:59;;;;;;;;;;;31.50;65.20;;;;;;5110992;28;19908;-80
2021/06/11 13:12:24;;;;;;;;;;;31.70;72.60;;;;;;5108585;28;19965;-76
2021/06/11 13:14:51;;;;;;;;;;;32.10;73.30;;;;;;5109613;28;20075;-77
2021/06/11 13:17:16;;;;;;;;;;;32.30;71.00;;;;;;5109750;28;20132;-76
2021/06/11 13:19:42;;;;;;;;;;;32.40;75.50;;;;;;5108940;28;20415;-80
2021/06/11 13:22:08;;;;;;;;;;;31.90;68.40;;;;;;5113054;28;20363;-79
2021/06/11 13:24:33;;;;;;;;;;;31.90;66.30;;;;;;5112200;28;19979;-77
2021/06/11 13:26:59;;;;;;;;;;;31.90;69.60;;;;;;5111782;28;19930;-78
2021/06/11 13:29:25;;;;;;;;;;;31.40;71.30;;;;;;5112693;28;19912;-77
2021/06/11 13:31:50;;;;;;;;;;;31.60;70.80;;;;;;5109884;28;19915;-77
2021/06/11 13:34:16;;;;;;;;;;;31.90;68.30;;;;;;5110895;28;20287;-77
2021/06/11 13:36:42;;;;;;;4.40;3.30;;;31.90;66.80;;;;;;5109094;28;19959;-77
2021/06/11 13:39:08;;;;;;;3.78;3.38;;;31.40;68.10;;;;;;5110482;28;20032;-76
2021/06/11 13:41:33;;;;;;;3.38;3.08;;;31.30;70.90;;;;;;5109842;28;20032;-78
2021/06/11 13:44:02;;;;;;;3.33;3.03;;;31.00;76.50;;;;;;5110388;28;20102;-77